sensor_id;sensor_type;location;lat;lon;timestamp;pressure;altitude;pressure_sealevel;temperature;humidity
28428;BME280;15662;49.128;8.520;2023-10-08T00:01:03;101273.09;;;21.15;42.32
28428;BME280;15662;49.128;8.520;2023-10-08T00:03:34;101267.00;;;21.11;42.22
28428;BME280;15662;49.128;8.520;2023-10-08T00:06:05;101265.78;;;21.17;42.09
28428;BME280;15662;49.128;8.520;2023-10-08T00:08:40;101260.59;;;21.14;42.35
28428;BME280;15662;49.128;8.520;2023-10-08T00:11:08;101265.00;;;21.15;42.09
28428;BME280;15662;49.128;8.520;2023-10-08T00:13:38;101268.56;;;21.16;42.11
28428;BME280;15662;49.128;8.520;2023-10-08T00:16:11;101266.03;;;21.12;42.04
28428;BME280;15662;49.128;8.520;2023-10-08T00:18:44;101265.16;;;21.12;42.18
28428;BME280;15662;49.128;8.520;2023-10-08T00:21:21;101265.25;;;21.10;42.16
28428;BME280;15662;49.128;8.520;2023-10-08T00:23:56;101255.84;;;21.02;42.20
28428;BME280;15662;49.128;8.520;2023-10-08T00:26:28;101260.84;;;21.09;41.93
28428;BME280;15662;49.128;8.520;2023-10-08T00:29:05;101261.94;;;21.05;41.98
28428;BME280;15662;49.128;8.520;2023-10-08T00:31:45;101254.97;;;21.01;42.08
28428;BME280;15662;49.128;8.520;2023-10-08T00:34:13;101247.16;;;20.97;41.92
28428;BME280;15662;49.128;8.520;2023-10-08T00:36:43;101250.66;;;20.99;41.93
28428;BME280;15662;49.128;8.520;2023-10-08T00:39:12;101245.41;;;20.96;41.75
28428;BME280;15662;49.128;8.520;2023-10-08T00:41:54;101247.34;;;20.94;42.03
28428;BME280;15662;49.128;8.520;2023-10-08T00:44:32;101252.72;;;20.94;41.95
28428;BME280;15662;49.128;8.520;2023-10-08T00:47:04;101261.75;;;20.93;42.05
28428;BME280;15662;49.128;8.520;2023-10-08T00:49:33;101260.00;;;20.92;41.95
28428;BME280;15662;49.128;8.520;2023-10-08T00:52:12;101246.88;;;20.85;41.78
28428;BME280;15662;49.128;8.520;2023-10-08T00:54:42;101255.72;;;20.87;41.80
28428;BME280;15662;49.128;8.520;2023-10-08T00:57:26;101251.47;;;20.83;41.72
28428;BME280;15662;49.128;8.520;2023-10-08T00:59:57;101244.28;;;20.84;42.06
28428;BME280;15662;49.128;8.520;2023-10-08T01:02:28;101241.59;;;20.84;41.58
28428;BME280;15662;49.128;8.520;2023-10-08T01:05:12;101250.59;;;20.83;41.73
28428;BME280;15662;49.128;8.520;2023-10-08T01:07:43;101248.94;;;20.80;41.65
28428;BME280;15662;49.128;8.520;2023-10-08T01:10:15;101252.59;;;20.79;41.85
28428;BME280;15662;49.128;8.520;2023-10-08T01:12:48;101253.53;;;20.78;41.56
28428;BME280;15662;49.128;8.520;2023-10-08T01:15:22;101259.03;;;20.77;41.64
28428;BME280;15662;49.128;8.520;2023-10-08T01:17:57;101258.94;;;20.78;41.40
28428;BME280;15662;49.128;8.520;2023-10-08T01:20:29;101263.63;;;20.75;41.62
28428;BME280;15662;49.128;8.520;2023-10-08T01:23:12;101265.53;;;20.73;41.60
28428;BME280;15662;49.128;8.520;2023-10-08T01:25:49;101260.13;;;20.73;41.62
28428;BME280;15662;49.128;8.520;2023-10-08T01:28:23;101264.75;;;20.71;41.42
28428;BME280;15662;49.128;8.520;2023-10-08T01:30:59;101264.75;;;20.71;41.43
28428;BME280;15662;49.128;8.520;2023-10-08T01:33:28;101255.09;;;20.67;41.25
28428;BME280;15662;49.128;8.520;2023-10-08T01:35:57;101252.38;;;20.67;41.16
28428;BME280;15662;49.128;8.520;2023-10-08T01:38:32;101250.81;;;20.63;41.30
28428;BME280;15662;49.128;8.520;2023-10-08T01:41:03;101269.59;;;20.64;41.03
28428;BME280;15662;49.128;8.520;2023-10-08T01:43:37;101264.38;;;20.61;41.09
28428;BME280;15662;49.128;8.520;2023-10-08T01:46:06;101258.19;;;20.59;41.08
28428;BME280;15662;49.128;8.520;2023-10-08T01:48:39;101260.88;;;20.59;41.13
28428;BME280;15662;49.128;8.520;2023-10-08T01:51:07;101260.88;;;20.59;41.26
28428;BME280;15662;49.128;8.520;2023-10-08T01:53:39;101244.25;;;20.51;41.02
28428;BME280;15662;49.128;8.520;2023-10-08T01:56:07;101248.69;;;20.52;41.15
28428;BME280;15662;49.128;8.520;2023-10-08T01:58:38;101256.78;;;20.52;41.13
28428;BME280;15662;49.128;8.520;2023-10-08T02:01:06;101259.56;;;20.50;40.97
28428;BME280;15662;49.128;8.520;2023-10-08T02:03:39;101270.25;;;20.52;41.31
28428;BME280;15662;49.128;8.520;2023-10-08T02:06:09;101250.88;;;20.44;40.99
28428;BME280;15662;49.128;8.520;2023-10-08T02:08:40;101270.47;;;20.47;41.19
28428;BME280;15662;49.128;8.520;2023-10-08T02:11:09;101269.66;;;20.45;40.98
28428;BME280;15662;49.128;8.520;2023-10-08T02:13:38;101266.03;;;20.46;41.13
28428;BME280;15662;49.128;8.520;2023-10-08T02:16:05;101268.00;;;20.43;41.14
28428;BME280;15662;49.128;8.520;2023-10-08T02:18:35;101256.69;;;20.36;41.12
28428;BME280;15662;49.128;8.520;2023-10-08T02:21:03;101255.63;;;20.39;41.35
28428;BME280;15662;49.128;8.520;2023-10-08T02:23:33;101264.66;;;20.38;41.42
28428;BME280;15662;49.128;8.520;2023-10-08T02:26:02;101255.63;;;20.39;41.32
28428;BME280;15662;49.128;8.520;2023-10-08T02:28:30;101261.03;;;20.39;41.35
28428;BME280;15662;49.128;8.520;2023-10-08T02:30:58;101259.28;;;20.38;41.29
28428;BME280;15662;49.128;8.520;2023-10-08T02:33:26;101264.66;;;20.38;41.53
28428;BME280;15662;49.128;8.520;2023-10-08T02:35:54;101261.13;;;20.37;41.49
28428;BME280;15662;49.128;8.520;2023-10-08T02:38:22;101263.91;;;20.35;41.36
28428;BME280;15662;49.128;8.520;2023-10-08T02:40:50;101253.28;;;20.32;41.43
28428;BME280;15662;49.128;8.520;2023-10-08T02:43:22;101256.91;;;20.14;41.48
28428;BME280;15662;49.128;8.520;2023-10-08T02:45:50;101257.31;;;20.24;41.38
28428;BME280;15662;49.128;8.520;2023-10-08T02:48:20;101258.13;;;20.26;41.50
28428;BME280;15662;49.128;8.520;2023-10-08T02:50:48;101245.66;;;20.23;41.17
28428;BME280;15662;49.128;8.520;2023-10-08T02:53:16;101252.88;;;20.23;41.43
28428;BME280;15662;49.128;8.520;2023-10-08T02:55:49;101244.25;;;20.16;41.28
28428;BME280;15662;49.128;8.520;2023-10-08T02:58:17;101248.53;;;20.20;41.23
28428;BME280;15662;49.128;8.520;2023-10-08T03:00:49;101251.47;;;20.16;41.52
28428;BME280;15662;49.128;8.520;2023-10-08T03:03:18;101251.38;;;20.17;41.37
28428;BME280;15662;49.128;8.520;2023-10-08T03:05:49;101257.88;;;20.13;41.22
28428;BME280;15662;49.128;8.520;2023-10-08T03:08:19;101268.63;;;20.13;41.16
28428;BME280;15662;49.128;8.520;2023-10-08T03:10:52;101253.59;;;20.09;41.44
28428;BME280;15662;49.128;8.520;2023-10-08T03:13:24;101257.16;;;20.09;41.27
28428;BME280;15662;49.128;8.520;2023-10-08T03:15:54;101260.00;;;20.06;41.26
28428;BME280;15662;49.128;8.520;2023-10-08T03:18:31;101269.03;;;20.05;41.21
28428;BME280;15662;49.128;8.520;2023-10-08T03:21:09;101269.97;;;20.04;41.28
28428;BME280;15662;49.128;8.520;2023-10-08T03:23:52;101266.63;;;19.99;41.35
28428;BME280;15662;49.128;8.520;2023-10-08T03:26:24;101272.75;;;20.03;41.46
28428;BME280;15662;49.128;8.520;2023-10-08T03:29:04;101262.06;;;20.01;41.46
28428;BME280;15662;49.128;8.520;2023-10-08T03:31:36;101263.91;;;20.01;41.33
28428;BME280;15662;49.128;8.520;2023-10-08T03:34:21;101265.00;;;19.97;41.54
28428;BME280;15662;49.128;8.520;2023-10-08T03:36:55;101260.72;;;19.93;41.67
28428;BME280;15662;49.128;8.520;2023-10-08T03:39:33;101265.31;;;19.91;41.54
28428;BME280;15662;49.128;8.520;2023-10-08T03:42:27;101268.91;;;19.90;41.58
28428;BME280;15662;49.128;8.520;2023-10-08T03:45:03;101256.66;;;19.84;41.56
28428;BME280;15662;49.128;8.520;2023-10-08T03:47:38;101261.03;;;19.87;41.70
28428;BME280;15662;49.128;8.520;2023-10-08T03:50:07;101249.63;;;19.81;41.60
28428;BME280;15662;49.128;8.520;2023-10-08T03:52:37;101263.94;;;19.82;41.57
28428;BME280;15662;49.128;8.520;2023-10-08T03:55:06;101262.25;;;19.79;41.54
28428;BME280;15662;49.128;8.520;2023-10-08T03:57:43;101253.50;;;19.76;41.40
28428;BME280;15662;49.128;8.520;2023-10-08T04:00:12;101245.47;;;19.74;41.35
28428;BME280;15662;49.128;8.520;2023-10-08T04:02:42;101249.22;;;19.72;41.60
28428;BME280;15662;49.128;8.520;2023-10-08T04:05:14;101241.28;;;19.69;41.60
28428;BME280;15662;49.128;8.520;2023-10-08T04:07:49;101240.50;;;19.67;41.63
28428;BME280;15662;49.128;8.520;2023-10-08T04:10:27;101231.56;;;19.66;41.54
28428;BME280;15662;49.128;8.520;2023-10-08T04:13:10;101221.03;;;19.62;41.54
28428;BME280;15662;49.128;8.520;2023-10-08T04:15:42;101230.94;;;19.61;41.35
28428;BME280;15662;49.128;8.520;2023-10-08T04:18:11;101231.78;;;19.62;41.35
28428;BME280;15662;49.128;8.520;2023-10-08T04:20:41;101229.53;;;19.52;41.46
28428;BME280;15662;49.128;8.520;2023-10-08T04:23:28;101237.69;;;19.51;41.43
28428;BME280;15662;49.128;8.520;2023-10-08T04:25:57;101228.78;;;19.49;41.38
28428;BME280;15662;49.128;8.520;2023-10-08T04:28:25;101235.91;;;19.50;41.63
28428;BME280;15662;49.128;8.520;2023-10-08T04:30:56;101242.31;;;19.47;41.43
28428;BME280;15662;49.128;8.520;2023-10-08T04:33:30;101232.75;;;19.42;41.37
28428;BME280;15662;49.128;8.520;2023-10-08T04:36:02;101242.47;;;19.44;41.37
28428;BME280;15662;49.128;8.520;2023-10-08T04:38:30;101232.78;;;19.40;41.36
28428;BME280;15662;49.128;8.520;2023-10-08T04:41:04;101253.31;;;19.43;41.49
28428;BME280;15662;49.128;8.520;2023-10-08T04:43:36;101255.16;;;19.41;41.32
28428;BME280;15662;49.128;8.520;2023-10-08T04:46:10;101254.53;;;19.36;41.25
28428;BME280;15662;49.128;8.520;2023-10-08T04:48:49;101259.84;;;19.37;41.20
28428;BME280;15662;49.128;8.520;2023-10-08T04:51:17;101255.44;;;19.36;41.18
28428;BME280;15662;49.128;8.520;2023-10-08T04:53:45;101256.34;;;19.35;41.21
28428;BME280;15662;49.128;8.520;2023-10-08T04:56:15;101257.22;;;19.36;41.26
28428;BME280;15662;49.128;8.520;2023-10-08T04:58:47;101256.28;;;19.37;41.20
28428;BME280;15662;49.128;8.520;2023-10-08T05:01:17;101249.97;;;19.38;41.18
28428;BME280;15662;49.128;8.520;2023-10-08T05:03:55;101252.88;;;19.33;41.07
28428;BME280;15662;49.128;8.520;2023-10-08T05:06:29;101253.66;;;19.35;41.10
28428;BME280;15662;49.128;8.520;2023-10-08T05:09:09;101258.16;;;19.34;40.89
28428;BME280;15662;49.128;8.520;2023-10-08T05:11:51;101253.66;;;19.35;40.92
28428;BME280;15662;49.128;8.520;2023-10-08T05:14:23;101249.16;;;19.36;40.92
28428;BME280;15662;49.128;8.520;2023-10-08T05:17:07;101244.72;;;19.34;40.92
28428;BME280;15662;49.128;8.520;2023-10-08T05:19:40;101249.16;;;19.36;40.68
28428;BME280;15662;49.128;8.520;2023-10-08T05:22:09;101246.53;;;19.34;40.67
28428;BME280;15662;49.128;8.520;2023-10-08T05:25:09;101240.16;;;19.37;40.99
28428;BME280;15662;49.128;8.520;2023-10-08T05:27:45;101236.59;;;19.36;40.83
28428;BME280;15662;49.128;8.520;2023-10-08T05:30:19;101231.06;;;19.39;40.58
28428;BME280;15662;49.128;8.520;2023-10-08T05:32:50;101245.31;;;19.41;40.75
28428;BME280;15662;49.128;8.520;2023-10-08T05:35:38;101241.81;;;19.39;40.79
28428;BME280;15662;49.128;8.520;2023-10-08T05:38:18;101248.06;;;19.40;40.70
28428;BME280;15662;49.128;8.520;2023-10-08T05:41:01;101253.59;;;19.37;40.89
28428;BME280;15662;49.128;8.520;2023-10-08T05:43:37;101252.56;;;19.39;40.84
28428;BME280;15662;49.128;8.520;2023-10-08T05:46:10;101254.47;;;19.37;40.95
28428;BME280;15662;49.128;8.520;2023-10-08T05:48:56;101245.75;;;19.32;40.88
28428;BME280;15662;49.128;8.520;2023-10-08T05:51:44;101254.69;;;19.32;41.08
28428;BME280;15662;49.128;8.520;2023-10-08T05:54:25;101252.78;;;19.34;40.81
28428;BME280;15662;49.128;8.520;2023-10-08T05:57:02;101260.84;;;19.34;41.10
28428;BME280;15662;49.128;8.520;2023-10-08T05:59:44;101241.97;;;19.36;41.02
28428;BME280;15662;49.128;8.520;2023-10-08T06:02:30;101248.22;;;19.37;41.03
28428;BME280;15662;49.128;8.520;2023-10-08T06:05:06;101235.00;;;19.32;41.24
28428;BME280;15662;49.128;8.520;2023-10-08T06:07:46;101242.84;;;19.37;41.17
28428;BME280;15662;49.128;8.520;2023-10-08T06:10:27;101232.22;;;19.33;41.35
28428;BME280;15662;49.128;8.520;2023-10-08T06:13:09;101248.16;;;19.38;41.35
28428;BME280;15662;49.128;8.520;2023-10-08T06:15:48;101249.97;;;19.38;41.62
28428;BME280;15662;49.128;8.520;2023-10-08T06:18:27;101262.38;;;19.40;41.74
28428;BME280;15662;49.128;8.520;2023-10-08T06:20:58;101261.44;;;19.41;41.89
28428;BME280;15662;49.128;8.520;2023-10-08T06:23:30;101271.16;;;19.44;41.84
28428;BME280;15662;49.128;8.520;2023-10-08T06:26:03;101265.66;;;19.47;41.84
28428;BME280;15662;49.128;8.520;2023-10-08T06:28:39;101264.84;;;19.45;42.08
28428;BME280;15662;49.128;8.520;2023-10-08T06:31:07;101265.34;;;19.53;42.02
28428;BME280;15662;49.128;8.520;2023-10-08T06:33:40;101271.47;;;19.56;41.81
28428;BME280;15662;49.128;8.520;2023-10-08T06:36:10;101282.06;;;19.59;42.01
28428;BME280;15662;49.128;8.520;2023-10-08T06:38:40;101282.91;;;19.62;41.74
28428;BME280;15662;49.128;8.520;2023-10-08T06:41:12;101300.53;;;19.67;41.90
28428;BME280;15662;49.128;8.520;2023-10-08T06:43:46;101295.91;;;19.71;41.85
28428;BME280;15662;49.128;8.520;2023-10-08T06:46:32;101283.44;;;19.68;42.14
28428;BME280;15662;49.128;8.520;2023-10-08T06:49:03;101289.34;;;19.76;42.10
28428;BME280;15662;49.128;8.520;2023-10-08T06:51:32;101281.09;;;19.79;42.28
28428;BME280;15662;49.128;8.520;2023-10-08T06:54:01;101290.69;;;19.85;42.22
28428;BME280;15662;49.128;8.520;2023-10-08T06:56:31;101303.03;;;19.89;42.12
28428;BME280;15662;49.128;8.520;2023-10-08T06:59:01;101312.78;;;19.92;42.44
28428;BME280;15662;49.128;8.520;2023-10-08T07:01:30;101322.94;;;20.04;42.29
28428;BME280;15662;49.128;8.520;2023-10-08T07:04:07;101317.31;;;20.08;42.65
28428;BME280;15662;49.128;8.520;2023-10-08T07:06:41;101313.84;;;20.24;42.38
28428;BME280;15662;49.128;8.520;2023-10-08T07:09:12;101316.16;;;20.31;42.48
28428;BME280;15662;49.128;8.520;2023-10-08T07:11:56;101314.81;;;20.40;42.75
28428;BME280;15662;49.128;8.520;2023-10-08T07:14:27;101310.78;;;20.49;42.60
28428;BME280;15662;49.128;8.520;2023-10-08T07:17:00;101299.78;;;20.53;42.30
28428;BME280;15662;49.128;8.520;2023-10-08T07:19:30;101295.97;;;20.57;42.68
28428;BME280;15662;49.128;8.520;2023-10-08T07:22:08;101299.38;;;20.61;42.39
28428;BME280;15662;49.128;8.520;2023-10-08T07:24:49;101301.22;;;20.60;42.54
28428;BME280;15662;49.128;8.520;2023-10-08T07:27:19;101289.47;;;20.61;42.54
28428;BME280;15662;49.128;8.520;2023-10-08T07:29:52;101298.44;;;20.62;42.36
28428;BME280;15662;49.128;8.520;2023-10-08T07:32:24;101299.28;;;20.63;42.13
28428;BME280;15662;49.128;8.520;2023-10-08T07:34:54;101293.19;;;20.59;42.37
28428;BME280;15662;49.128;8.520;2023-10-08T07:37:31;101311.03;;;20.61;42.27
28428;BME280;15662;49.128;8.520;2023-10-08T07:40:00;101318.09;;;20.64;42.35
28428;BME280;15662;49.128;8.520;2023-10-08T07:42:31;101308.09;;;20.66;42.02
28428;BME280;15662;49.128;8.520;2023-10-08T07:45:00;101311.56;;;20.68;42.30
28428;BME280;15662;49.128;8.520;2023-10-08T07:47:28;101325.66;;;20.73;42.06
28428;BME280;15662;49.128;8.520;2023-10-08T07:49:56;101327.44;;;20.74;42.09
28428;BME280;15662;49.128;8.520;2023-10-08T07:52:26;101329.94;;;20.77;42.21
28428;BME280;15662;49.128;8.520;2023-10-08T07:54:54;101341.34;;;20.82;42.17
28428;BME280;15662;49.128;8.520;2023-10-08T07:57:21;101345.72;;;20.85;42.21
28428;BME280;15662;49.128;8.520;2023-10-08T07:59:55;101357.66;;;20.97;42.20
28428;BME280;15662;49.128;8.520;2023-10-08T08:02:38;101350.13;;;21.03;42.30
28428;BME280;15662;49.128;8.520;2023-10-08T08:05:06;101360.25;;;21.16;42.27
28428;BME280;15662;49.128;8.520;2023-10-08T08:07:34;101352.69;;;21.22;42.29
28428;BME280;15662;49.128;8.520;2023-10-08T08:10:02;101349.56;;;21.30;42.30
28428;BME280;15662;49.128;8.520;2023-10-08T08:12:34;101368.75;;;21.41;42.56
28428;BME280;15662;49.128;8.520;2023-10-08T08:15:03;101361.13;;;21.49;42.46
28428;BME280;15662;49.128;8.520;2023-10-08T08:17:43;101371.16;;;21.63;42.54
28428;BME280;15662;49.128;8.520;2023-10-08T08:20:12;101370.44;;;21.75;42.32
28428;BME280;15662;49.128;8.520;2023-10-08T08:22:46;101373.50;;;21.85;42.50
28428;BME280;15662;49.128;8.520;2023-10-08T08:25:17;101373.84;;;21.95;42.27
28428;BME280;15662;49.128;8.520;2023-10-08T08:28:01;101379.59;;;22.04;42.32
28428;BME280;15662;49.128;8.520;2023-10-08T08:30:29;101376.28;;;22.15;42.26
28428;BME280;15662;49.128;8.520;2023-10-08T08:32:57;101383.00;;;22.24;42.12
28428;BME280;15662;49.128;8.520;2023-10-08T08:35:26;101377.81;;;22.35;42.01
28428;BME280;15662;49.128;8.520;2023-10-08T08:37:54;101380.69;;;22.48;41.95
28428;BME280;15662;49.128;8.520;2023-10-08T08:40:22;101379.16;;;22.58;41.70
28428;BME280;15662;49.128;8.520;2023-10-08T08:42:51;101366.94;;;22.66;41.61
28428;BME280;15662;49.128;8.520;2023-10-08T08:45:26;101365.59;;;22.74;41.62
28428;BME280;15662;49.128;8.520;2023-10-08T08:48:01;101364.06;;;22.84;41.49
28428;BME280;15662;49.128;8.520;2023-10-08T08:50:29;101360.06;;;22.91;41.38
28428;BME280;15662;49.128;8.520;2023-10-08T08:52:57;101354.06;;;23.00;41.35
28428;BME280;15662;49.128;8.520;2023-10-08T08:55:27;101343.16;;;23.02;41.31
28428;BME280;15662;49.128;8.520;2023-10-08T08:57:56;101361.31;;;23.14;41.05
28428;BME280;15662;49.128;8.520;2023-10-08T09:00:24;101360.84;;;23.22;41.07
28428;BME280;15662;49.128;8.520;2023-10-08T09:02:56;101374.97;;;23.27;40.84
28428;BME280;15662;49.128;8.520;2023-10-08T09:05:24;101363.16;;;23.28;40.78
28428;BME280;15662;49.128;8.520;2023-10-08T09:08:06;101362.75;;;23.34;40.58
28428;BME280;15662;49.128;8.520;2023-10-08T09:10:37;101379.88;;;23.34;40.26
28428;BME280;15662;49.128;8.520;2023-10-08T09:13:08;101362.69;;;23.35;40.21
28428;BME280;15662;49.128;8.520;2023-10-08T09:15:37;101376.88;;;23.39;40.41
28428;BME280;15662;49.128;8.520;2023-10-08T09:18:06;101364.03;;;23.42;40.41
28428;BME280;15662;49.128;8.520;2023-10-08T09:20:38;101380.44;;;23.54;40.07
28428;BME280;15662;49.128;8.520;2023-10-08T09:23:15;101375.88;;;23.54;39.90
28428;BME280;15662;49.128;8.520;2023-10-08T09:25:46;101378.13;;;23.62;39.95
28428;BME280;15662;49.128;8.520;2023-10-08T09:28:32;101380.66;;;23.65;39.93
28428;BME280;15662;49.128;8.520;2023-10-08T09:31:05;101377.66;;;23.70;40.13
28428;BME280;15662;49.128;8.520;2023-10-08T09:33:34;101389.16;;;23.73;39.82
28428;BME280;15662;49.128;8.520;2023-10-08T09:36:02;101382.47;;;23.79;40.01
28428;BME280;15662;49.128;8.520;2023-10-08T09:38:30;101379.69;;;23.80;39.83
28428;BME280;15662;49.128;8.520;2023-10-08T09:41:00;101383.25;;;23.81;39.64
28428;BME280;15662;49.128;8.520;2023-10-08T09:43:31;101385.72;;;23.84;39.71
28428;BME280;15662;49.128;8.520;2023-10-08T09:46:18;101377.41;;;23.87;39.61
28428;BME280;15662;49.128;8.520;2023-10-08T09:48:51;101384.19;;;23.94;40.00
28428;BME280;15662;49.128;8.520;2023-10-08T09:51:23;101385.69;;;23.98;39.88
28428;BME280;15662;49.128;8.520;2023-10-08T09:54:05;101386.53;;;24.13;39.93
28428;BME280;15662;49.128;8.520;2023-10-08T09:56:40;101382.09;;;24.12;40.09
28428;BME280;15662;49.128;8.520;2023-10-08T09:59:08;101376.38;;;24.16;40.11
28428;BME280;15662;49.128;8.520;2023-10-08T10:01:38;101381.72;;;24.31;39.92
28428;BME280;15662;49.128;8.520;2023-10-08T10:04:11;101380.38;;;24.38;39.97
28428;BME280;15662;49.128;8.520;2023-10-08T10:06:42;101389.84;;;24.45;39.77
28428;BME280;15662;49.128;8.520;2023-10-08T10:09:20;101370.97;;;24.43;39.62
28428;BME280;15662;49.128;8.520;2023-10-08T10:11:51;101393.53;;;24.44;39.98
28428;BME280;15662;49.128;8.520;2023-10-08T10:14:23;101377.91;;;24.48;39.81
28428;BME280;15662;49.128;8.520;2023-10-08T10:17:21;101386.19;;;24.59;39.73
28428;BME280;15662;49.128;8.520;2023-10-08T10:20:10;101371.00;;;24.56;40.11
28428;BME280;15662;49.128;8.520;2023-10-08T10:22:43;101374.06;;;24.64;39.71
28428;BME280;15662;49.128;8.520;2023-10-08T10:25:17;101367.66;;;24.65;39.68
28428;BME280;15662;49.128;8.520;2023-10-08T10:28:21;101376.13;;;24.74;39.65
28428;BME280;15662;49.128;8.520;2023-10-08T10:30:50;101354.44;;;24.74;39.86
28428;BME280;15662;49.128;8.520;2023-10-08T10:33:18;101356.72;;;24.80;39.88
28428;BME280;15662;49.128;8.520;2023-10-08T10:35:51;101372.13;;;24.92;39.85
28428;BME280;15662;49.128;8.520;2023-10-08T10:38:20;101372.91;;;24.94;40.04
28428;BME280;15662;49.128;8.520;2023-10-08T10:40:50;101366.38;;;24.96;40.18
28428;BME280;15662;49.128;8.520;2023-10-08T10:43:25;101364.88;;;25.05;39.97
28428;BME280;15662;49.128;8.520;2023-10-08T10:46:07;101372.38;;;25.14;39.90
28428;BME280;15662;49.128;8.520;2023-10-08T10:48:53;101353.28;;;25.16;39.94
28428;BME280;15662;49.128;8.520;2023-10-08T10:51:33;101350.69;;;25.27;39.77
28428;BME280;15662;49.128;8.520;2023-10-08T10:54:02;101347.28;;;25.36;39.76
28428;BME280;15662;49.128;8.520;2023-10-08T10:56:36;101353.78;;;25.46;39.94
28428;BME280;15662;49.128;8.520;2023-10-08T10:59:12;101342.38;;;25.54;39.73
28428;BME280;15662;49.128;8.520;2023-10-08T11:01:50;101337.13;;;25.64;39.66
28428;BME280;15662;49.128;8.520;2023-10-08T11:04:33;101332.66;;;25.76;39.70
28428;BME280;15662;49.128;8.520;2023-10-08T11:07:20;101316.16;;;25.79;39.51
28428;BME280;15662;49.128;8.520;2023-10-08T11:09:48;101338.47;;;25.95;39.27
28428;BME280;15662;49.128;8.520;2023-10-08T11:12:19;101331.34;;;26.05;39.51
28428;BME280;15662;49.128;8.520;2023-10-08T11:14:51;101332.28;;;26.17;39.41
28428;BME280;15662;49.128;8.520;2023-10-08T11:17:25;101316.25;;;26.25;39.23
28428;BME280;15662;49.128;8.520;2023-10-08T11:19:57;101321.75;;;26.36;39.07
28428;BME280;15662;49.128;8.520;2023-10-08T11:22:41;101314.97;;;26.42;38.81
28428;BME280;15662;49.128;8.520;2023-10-08T11:25:25;101324.91;;;26.54;38.72
28428;BME280;15662;49.128;8.520;2023-10-08T11:27:58;101318.59;;;26.54;38.36
28428;BME280;15662;49.128;8.520;2023-10-08T11:30:31;101319.50;;;26.65;38.56
28428;BME280;15662;49.128;8.520;2023-10-08T11:32:59;101323.81;;;26.68;38.26
28428;BME280;15662;49.128;8.520;2023-10-08T11:35:27;101326.19;;;26.72;38.37
28428;BME280;15662;49.128;8.520;2023-10-08T11:37:59;101324.09;;;26.76;38.03
28428;BME280;15662;49.128;8.520;2023-10-08T11:40:28;101313.59;;;26.71;37.95
28428;BME280;15662;49.128;8.520;2023-10-08T11:42:58;101319.88;;;26.72;38.12
28428;BME280;15662;49.128;8.520;2023-10-08T11:45:31;101312.59;;;26.72;37.86
28428;BME280;15662;49.128;8.520;2023-10-08T11:48:16;101312.09;;;26.67;37.75
28428;BME280;15662;49.128;8.520;2023-10-08T11:50:56;101313.94;;;26.67;38.10
28428;BME280;15662;49.128;8.520;2023-10-08T11:53:25;101322.22;;;26.65;37.99
28428;BME280;15662;49.128;8.520;2023-10-08T11:55:53;101317.75;;;26.64;37.95
28428;BME280;15662;49.128;8.520;2023-10-08T11:58:24;101299.63;;;26.41;38.21
28428;BME280;15662;49.128;8.520;2023-10-08T12:01:05;101301.91;;;26.47;38.52
28428;BME280;15662;49.128;8.520;2023-10-08T12:03:33;101307.84;;;26.52;38.29
28428;BME280;15662;49.128;8.520;2023-10-08T12:06:03;101305.13;;;26.52;38.06
28428;BME280;15662;49.128;8.520;2023-10-08T12:08:33;101305.13;;;26.52;37.96
28428;BME280;15662;49.128;8.520;2023-10-08T12:11:07;101291.66;;;26.51;37.99
28428;BME280;15662;49.128;8.520;2023-10-08T12:13:40;101298.56;;;26.55;38.04
28428;BME280;15662;49.128;8.520;2023-10-08T12:16:17;101288.06;;;26.50;38.00
28428;BME280;15662;49.128;8.520;2023-10-08T12:18:51;101294.25;;;26.52;37.92
28428;BME280;15662;49.128;8.520;2023-10-08T12:21:29;101292.41;;;26.53;38.06
28428;BME280;15662;49.128;8.520;2023-10-08T12:23:58;101300.22;;;26.33;38.42
28428;BME280;15662;49.128;8.520;2023-10-08T12:26:26;101303.00;;;26.44;38.31
28428;BME280;15662;49.128;8.520;2023-10-08T12:28:54;101300.91;;;26.48;38.11
28428;BME280;15662;49.128;8.520;2023-10-08T12:31:23;101297.63;;;26.56;38.16
28428;BME280;15662;49.128;8.520;2023-10-08T12:33:53;101297.47;;;26.57;38.09
28428;BME280;15662;49.128;8.520;2023-10-08T12:36:27;101282.03;;;26.58;38.11
28428;BME280;15662;49.128;8.520;2023-10-08T12:39:00;101286.47;;;26.59;38.23
28428;BME280;15662;49.128;8.520;2023-10-08T12:41:35;101276.47;;;26.59;38.11
28428;BME280;15662;49.128;8.520;2023-10-08T12:44:06;101273.66;;;26.61;38.21
28428;BME280;15662;49.128;8.520;2023-10-08T12:46:37;101279.69;;;26.64;38.19
28428;BME280;15662;49.128;8.520;2023-10-08T12:49:05;101280.44;;;26.66;38.33
28428;BME280;15662;49.128;8.520;2023-10-08T12:51:34;101285.75;;;26.68;38.10
28428;BME280;15662;49.128;8.520;2023-10-08T12:54:03;101277.47;;;26.69;38.16
28428;BME280;15662;49.128;8.520;2023-10-08T12:56:31;101271.94;;;26.71;38.27
28428;BME280;15662;49.128;8.520;2023-10-08T12:59:16;101280.94;;;26.71;38.40
28428;BME280;15662;49.128;8.520;2023-10-08T13:01:52;101271.56;;;26.75;38.18
28428;BME280;15662;49.128;8.520;2023-10-08T13:04:23;101276.88;;;26.77;38.05
28428;BME280;15662;49.128;8.520;2023-10-08T13:06:58;101266.22;;;26.74;37.96
28428;BME280;15662;49.128;8.520;2023-10-08T13:09:32;101285.41;;;26.84;37.83
28428;BME280;15662;49.128;8.520;2023-10-08T13:12:04;101282.81;;;26.82;37.86
28428;BME280;15662;49.128;8.520;2023-10-08T13:14:33;101282.69;;;26.84;37.89
28428;BME280;15662;49.128;8.520;2023-10-08T13:17:03;101288.97;;;26.84;38.13
28428;BME280;15662;49.128;8.520;2023-10-08T13:19:31;101268.72;;;26.88;38.02
28428;BME280;15662;49.128;8.520;2023-10-08T13:22:02;101275.00;;;26.89;37.97